createdAt,value
2022-08-22T00:02:24.592Z,0.57
2022-08-22T00:02:46.131Z,0.80
2022-08-22T00:03:00.778Z,0.60
2022-08-22T00:05:07.839Z,0.40
2022-08-22T00:07:52.783Z,0.50
2022-08-22T00:10:31.409Z,0.60
2022-08-22T00:13:05.950Z,0.50
2022-08-22T00:15:44.454Z,0.40
2022-08-22T00:18:41.479Z,0.50
2022-08-22T00:21:36.540Z,0.38
2022-08-22T00:24:17.450Z,0.30
2022-08-22T00:27:07.803Z,0.30
2022-08-22T00:29:39.839Z,0.20
2022-08-22T00:32:10.722Z,0.32
2022-08-22T00:34:43.328Z,0.30
2022-08-22T00:37:20.352Z,0.30
2022-08-22T00:40:26.651Z,0.30
2022-08-22T00:42:56.837Z,0.30
2022-08-22T00:46:24.313Z,0.30
2022-08-22T00:49:25.459Z,0.40
2022-08-22T00:52:14.868Z,0.30
2022-08-22T00:55:00.688Z,0.30
2022-08-22T00:57:30.641Z,0.30
2022-08-22T01:00:14.329Z,0.30
2022-08-22T01:02:56.602Z,0.30
2022-08-22T01:05:23.822Z,0.30
2022-08-22T01:08:18.535Z,0.30
2022-08-22T01:11:15.536Z,0.30
2022-08-22T01:14:04.254Z,0.40
2022-08-22T01:16:49.833Z,0.30
2022-08-22T01:19:29.208Z,0.30
2022-08-22T01:22:21.125Z,0.30
2022-08-22T01:25:25.932Z,0.30
2022-08-22T01:28:16.449Z,0.30
2022-08-22T01:31:08.846Z,0.30
2022-08-22T01:33:35.951Z,0.40
2022-08-22T01:36:29.515Z,0.40
2022-08-22T01:39:09.050Z,0.30
2022-08-22T01:42:00.592Z,0.30
2022-08-22T01:44:55.549Z,0.20
2022-08-22T01:47:56.175Z,0.30
2022-08-22T01:50:49.651Z,1.13
2022-08-22T01:53:25.820Z,0.20
2022-08-22T01:56:07.621Z,0.28
2022-08-22T01:58:42.661Z,0.20
2022-08-22T02:01:24.535Z,0.30
2022-08-22T02:04:18.583Z,0.30
2022-08-22T02:07:17.079Z,0.20
2022-08-22T02:10:05.060Z,0.20
2022-08-22T02:12:41.751Z,0.20
2022-08-22T02:15:21.233Z,0.30
2022-08-22T02:18:06.698Z,0.20
2022-08-22T02:20:55.635Z,0.30
2022-08-22T02:23:43.912Z,0.30
2022-08-22T02:26:41.393Z,0.30
2022-08-22T02:29:14.250Z,0.25
2022-08-22T02:32:04.961Z,0.40
2022-08-22T02:34:56.995Z,0.20
2022-08-22T02:37:39.475Z,0.30
2022-08-22T02:40:10.847Z,0.30
2022-08-22T02:42:59.830Z,0.30
2022-08-22T02:45:35.923Z,0.30
2022-08-22T02:48:34.256Z,0.20
2022-08-22T02:51:10.610Z,0.20
2022-08-22T02:54:00.223Z,0.20
2022-08-22T02:56:31.694Z,0.30
2022-08-22T02:59:13.189Z,0.30
2022-08-22T03:01:43.905Z,0.30
2022-08-22T03:04:25.931Z,0.32
2022-08-22T03:07:14.614Z,0.30
2022-08-22T03:09:49.614Z,0.40
2022-08-22T03:12:24.824Z,0.30
2022-08-22T03:15:00.534Z,0.40
2022-08-22T03:17:38.457Z,0.45
2022-08-22T03:20:35.303Z,0.30
2022-08-22T03:23:13.460Z,0.40
2022-08-22T03:25:52.874Z,0.40
2022-08-22T03:29:03.887Z,0.40
2022-08-22T03:31:32.308Z,0.45
2022-08-22T03:34:27.098Z,0.40
2022-08-22T03:37:20.911Z,0.38
2022-08-22T03:39:51.015Z,0.40
2022-08-22T03:42:30.124Z,0.60
2022-08-22T03:45:21.850Z,0.32
2022-08-22T03:48:22.226Z,0.40
2022-08-22T03:51:18.848Z,0.40
2022-08-22T03:53:45.929Z,0.40
2022-08-22T03:56:37.322Z,0.32
2022-08-22T03:59:37.128Z,0.40
2022-08-22T04:02:51.790Z,0.45
2022-08-22T04:05:43.705Z,0.40
2022-08-22T04:08:16.565Z,0.30
2022-08-22T04:11:12.120Z,0.30
2022-08-22T04:14:01.294Z,0.70
2022-08-22T04:16:50.990Z,0.40
2022-08-22T04:19:56.740Z,0.40
2022-08-22T04:22:33.396Z,0.30
2022-08-22T04:25:23.464Z,0.50
2022-08-22T04:28:13.231Z,0.40
2022-08-22T04:30:56.120Z,0.40
2022-08-22T04:33:30.421Z,0.50
2022-08-22T04:36:19.327Z,0.40
2022-08-22T04:38:52.973Z,0.47
2022-08-22T04:41:24.845Z,0.63
2022-08-22T04:43:58.781Z,0.43
2022-08-22T04:46:50.717Z,0.50
2022-08-22T04:49:29.494Z,0.40
2022-08-22T04:52:08.860Z,0.50
2022-08-22T04:54:58.028Z,0.60
2022-08-22T04:57:42.721Z,0.45
2022-08-22T05:00:11.816Z,0.65
2022-08-22T05:02:44.710Z,0.50
2022-08-22T05:05:23.677Z,0.70
2022-08-22T05:07:58.461Z,0.60
2022-08-22T05:10:33.474Z,0.57
2022-08-22T05:13:09.388Z,0.70
2022-08-22T05:15:40.762Z,1.07
2022-08-22T05:18:16.235Z,0.70
2022-08-22T05:20:49.360Z,0.60
2022-08-22T05:23:21.498Z,0.60
2022-08-22T05:25:51.671Z,0.60
2022-08-22T05:28:31.433Z,0.50
2022-08-22T05:30:59.727Z,0.40
2022-08-22T05:33:41.713Z,0.50
2022-08-22T05:36:25.570Z,0.40
2022-08-22T05:39:14.660Z,0.40
2022-08-22T05:41:42.133Z,0.30
2022-08-22T05:44:28.178Z,0.40
2022-08-22T05:47:08.075Z,0.40
2022-08-22T05:49:45.675Z,0.40
2022-08-22T05:52:33.549Z,0.47
2022-08-22T05:55:17.845Z,0.40
2022-08-22T05:57:50.023Z,0.50
2022-08-22T06:00:25.726Z,0.40
2022-08-22T06:02:55.598Z,0.50
2022-08-22T06:05:28.867Z,0.40
2022-08-22T06:08:20.157Z,0.40
2022-08-22T06:10:53.691Z,0.40
2022-08-22T06:13:24.714Z,0.43
2022-08-22T06:18:58.010Z,0.50
2022-08-22T06:21:29.153Z,0.40
2022-08-22T06:24:03.109Z,0.50
2022-08-22T06:26:39.433Z,0.47
2022-08-22T06:29:08.581Z,0.52
2022-08-22T06:31:46.734Z,0.47
2022-08-22T06:34:17.836Z,0.60
2022-08-22T06:36:49.424Z,0.60
2022-08-22T06:39:29.467Z,0.75
2022-08-22T06:42:15.893Z,0.50
2022-08-22T06:44:52.665Z,0.57
2022-08-22T06:47:28.019Z,0.43
2022-08-22T06:50:02.907Z,0.50
2022-08-22T06:52:34.469Z,0.60
2022-08-22T06:55:09.611Z,0.50
2022-08-22T06:57:45.218Z,0.70
2022-08-22T07:00:15.965Z,0.60
2022-08-22T07:02:52.877Z,0.50
2022-08-22T07:05:24.281Z,0.60
2022-08-22T07:07:52.759Z,0.50
2022-08-22T07:10:22.784Z,0.55
2022-08-22T07:12:54.036Z,0.57
2022-08-22T07:15:32.441Z,0.60
2022-08-22T07:18:02.803Z,0.60
2022-08-22T07:23:35.415Z,0.50
2022-08-22T07:26:10.956Z,0.50
2022-08-22T07:28:51.604Z,0.60
2022-08-22T07:31:46.621Z,0.75
2022-08-22T07:34:28.610Z,0.80
2022-08-22T07:37:03.974Z,0.93
2022-08-22T07:39:38.264Z,0.60
2022-08-22T07:42:11.440Z,0.50
2022-08-22T07:45:10.649Z,0.60
2022-08-22T07:47:54.511Z,0.60
2022-08-22T07:50:27.354Z,0.55
2022-08-22T07:53:01.702Z,0.50
2022-08-22T07:55:29.107Z,0.40
2022-08-22T07:58:01.833Z,0.60
2022-08-22T08:00:32.699Z,0.60
2022-08-22T08:03:06.927Z,0.68
2022-08-22T08:05:36.487Z,0.60
2022-08-22T08:08:12.256Z,0.70
2022-08-22T08:10:42.944Z,0.70
2022-08-22T08:13:20.799Z,0.73
2022-08-22T08:15:50.320Z,0.98
2022-08-22T08:18:22.018Z,1.00
2022-08-22T08:21:00.171Z,1.30
2022-08-22T08:23:31.437Z,0.93
2022-08-22T08:26:09.981Z,0.90
2022-08-22T08:28:45.772Z,0.90
2022-08-22T08:31:22.039Z,0.70
2022-08-22T08:33:53.420Z,1.00
2022-08-22T08:36:37.932Z,0.60
2022-08-22T08:39:14.335Z,0.60
2022-08-22T08:41:53.876Z,0.55
2022-08-22T08:44:39.512Z,0.73
2022-08-22T08:47:34.541Z,0.70
2022-08-22T08:50:11.845Z,0.68
2022-08-22T08:56:10.786Z,0.73
2022-08-22T08:59:03.335Z,0.90
2022-08-22T09:01:54.131Z,1.05
2022-08-22T09:04:56.113Z,1.00
2022-08-22T09:07:35.370Z,1.10
2022-08-22T09:11:12.087Z,0.90
2022-08-22T09:14:11.438Z,0.70
2022-08-22T09:20:22.631Z,0.73
2022-08-22T09:23:37.683Z,0.77
2022-08-22T09:26:17.185Z,0.82
2022-08-22T09:29:35.891Z,0.80
2022-08-22T09:32:30.023Z,0.85
2022-08-22T09:35:12.685Z,0.95
2022-08-22T09:38:18.234Z,1.02
2022-08-22T09:40:51.603Z,1.10
2022-08-22T09:43:24.542Z,1.10
2022-08-22T09:46:02.126Z,0.80
2022-08-22T09:48:45.562Z,1.25
2022-08-22T09:51:38.770Z,0.90
2022-08-22T09:57:33.653Z,1.20
2022-08-22T10:00:22.153Z,1.08
2022-08-22T10:02:52.603Z,1.00
2022-08-22T10:06:13.279Z,1.00
2022-08-22T10:11:46.228Z,0.90
2022-08-22T10:14:50.651Z,0.70
2022-08-22T10:17:30.589Z,1.10
2022-08-22T10:20:10.176Z,1.00
2022-08-22T10:23:02.970Z,1.10
2022-08-22T10:25:42.179Z,0.90
2022-08-22T10:28:15.231Z,1.13
2022-08-22T10:31:20.127Z,1.30
2022-08-22T10:33:47.263Z,1.00
2022-08-22T10:36:19.954Z,0.90
2022-08-22T10:38:53.278Z,0.93
2022-08-22T10:41:36.770Z,1.10
2022-08-22T10:44:17.302Z,1.08
2022-08-22T10:46:47.839Z,1.00
2022-08-22T10:49:29.419Z,1.25
2022-08-22T10:52:16.038Z,0.70
2022-08-22T10:55:17.485Z,0.80
2022-08-22T10:58:13.738Z,0.90
2022-08-22T11:00:58.515Z,0.85
2022-08-22T11:03:28.655Z,1.20
2022-08-22T11:06:01.610Z,1.10
2022-08-22T11:08:52.468Z,0.85
2022-08-22T11:11:23.711Z,1.35
2022-08-22T11:14:09.744Z,0.90
2022-08-22T11:16:55.573Z,1.20
2022-08-22T11:19:31.854Z,1.30
2022-08-22T11:22:33.838Z,0.95
2022-08-22T11:25:38.930Z,1.10
2022-08-22T11:28:25.415Z,0.85
2022-08-22T11:31:09.478Z,1.30
2022-08-22T11:36:56.556Z,1.00
2022-08-22T11:39:33.483Z,1.35
2022-08-22T11:42:14.502Z,1.40
2022-08-22T11:44:54.349Z,1.27
2022-08-22T11:47:26.537Z,1.00
2022-08-22T11:50:34.631Z,1.15
2022-08-22T11:53:11.440Z,1.55
2022-08-22T11:55:42.476Z,1.20
2022-08-22T12:01:34.478Z,1.10
2022-08-22T12:04:12.946Z,1.33
2022-08-22T12:07:15.525Z,1.48
2022-08-22T12:09:56.052Z,1.35
2022-08-22T12:12:32.406Z,1.30
2022-08-22T12:15:15.910Z,1.20
2022-08-22T12:18:14.362Z,0.98
2022-08-22T12:21:18.799Z,1.30
2022-08-22T12:24:11.113Z,1.00
2022-08-22T12:27:28.926Z,1.10
2022-08-22T12:30:14.170Z,1.30
2022-08-22T12:33:09.673Z,1.42
2022-08-22T12:36:18.543Z,1.35
2022-08-22T12:39:01.829Z,1.30
2022-08-22T12:41:37.936Z,1.50
2022-08-22T12:44:24.427Z,1.20
2022-08-22T12:46:55.163Z,0.90
2022-08-22T12:50:00.525Z,1.50
2022-08-22T12:52:40.389Z,1.40
2022-08-22T12:55:28.289Z,1.13
2022-08-22T12:58:18.168Z,1.30
2022-08-22T13:00:48.089Z,1.42
2022-08-22T13:03:37.583Z,1.52
2022-08-22T13:06:21.953Z,1.20
2022-08-22T13:08:50.196Z,1.33
2022-08-22T13:11:23.194Z,1.30
2022-08-22T13:13:58.742Z,1.70
2022-08-22T13:16:37.516Z,1.65
2022-08-22T13:19:16.896Z,1.60
2022-08-22T13:21:48.318Z,1.48
2022-08-22T13:24:38.491Z,1.40
2022-08-22T13:27:14.932Z,1.35
2022-08-22T13:29:57.152Z,1.20
2022-08-22T13:32:37.735Z,1.10
2022-08-22T13:35:09.759Z,1.30
2022-08-22T13:37:45.425Z,1.10
2022-08-22T13:40:29.562Z,1.20
2022-08-22T13:43:11.267Z,1.50
2022-08-22T13:45:42.007Z,1.85
2022-08-22T13:48:13.133Z,1.73
2022-08-22T13:51:04.036Z,1.50
2022-08-22T13:54:01.925Z,1.70
2022-08-22T13:56:52.293Z,1.85
2022-08-22T13:59:50.891Z,1.85
2022-08-22T14:02:34.869Z,2.08
2022-08-22T14:05:22.142Z,1.73
2022-08-22T14:08:03.097Z,2.05
2022-08-22T14:10:35.476Z,1.95
2022-08-22T14:13:48.094Z,2.10
2022-08-22T14:16:24.254Z,2.55
2022-08-22T14:18:58.066Z,1.63
2022-08-22T14:21:40.182Z,2.00
2022-08-22T14:24:25.850Z,1.95
2022-08-22T14:27:06.363Z,1.90
2022-08-22T14:32:54.388Z,1.43
2022-08-22T14:35:37.910Z,1.45
2022-08-22T14:38:17.454Z,1.80
2022-08-22T14:40:47.150Z,1.55
2022-08-22T14:43:35.888Z,1.77
2022-08-22T14:46:12.605Z,1.23
2022-08-22T14:49:18.377Z,1.73
2022-08-22T14:51:59.339Z,1.58
2022-08-22T14:54:29.107Z,1.73
2022-08-22T14:56:57.970Z,1.75
2022-08-22T14:59:30.884Z,1.63
2022-08-22T15:02:13.764Z,1.55
2022-08-22T15:04:49.774Z,1.60
2022-08-22T15:07:34.879Z,1.10
2022-08-22T15:10:26.994Z,1.13
2022-08-22T15:13:03.179Z,1.27
2022-08-22T15:15:49.772Z,1.17
2022-08-22T15:18:27.268Z,1.45
2022-08-22T15:21:10.204Z,1.00
2022-08-22T15:23:44.795Z,0.98
2022-08-22T15:26:22.482Z,0.73
2022-08-22T15:28:57.749Z,0.88
2022-08-22T15:31:25.652Z,0.90
2022-08-22T15:34:06.997Z,1.02
2022-08-22T15:36:56.303Z,0.90
2022-08-22T15:39:34.008Z,1.10
2022-08-22T15:42:05.576Z,1.20
2022-08-22T15:44:40.528Z,1.13
2022-08-22T15:47:31.504Z,0.80
2022-08-22T15:50:09.888Z,1.00
2022-08-22T15:53:13.527Z,0.83
2022-08-22T15:56:03.079Z,0.80
2022-08-22T15:58:37.293Z,0.80
2022-08-22T16:01:18.814Z,1.23
2022-08-22T16:04:14.389Z,1.13
2022-08-22T16:06:49.117Z,1.03
2022-08-22T16:09:49.255Z,1.10
2022-08-22T16:12:31.736Z,1.00
2022-08-22T16:15:01.421Z,0.90
2022-08-22T16:17:28.464Z,1.25
2022-08-22T16:20:19.522Z,1.23
2022-08-22T16:23:07.484Z,1.25
2022-08-22T16:25:47.531Z,1.17
2022-08-22T16:28:41.493Z,1.65
2022-08-22T16:31:27.433Z,1.40
2022-08-22T16:33:59.166Z,1.60
2022-08-22T16:37:03.498Z,1.73
2022-08-22T16:39:43.312Z,1.52
2022-08-22T16:42:13.659Z,1.40
2022-08-22T16:44:55.359Z,1.45
2022-08-22T16:47:36.238Z,1.63
2022-08-22T16:50:30.075Z,1.70
2022-08-22T16:53:06.036Z,1.67
2022-08-22T16:55:35.946Z,1.65
2022-08-22T16:58:44.753Z,1.30
2022-08-22T17:01:42.844Z,1.43
2022-08-22T17:04:12.963Z,1.30
2022-08-22T17:07:04.597Z,1.30
2022-08-22T17:09:50.519Z,1.20
2022-08-22T17:12:23.537Z,1.05
2022-08-22T17:15:02.622Z,1.30
2022-08-22T17:17:59.554Z,1.33
2022-08-22T17:20:44.602Z,1.20
2022-08-22T17:23:39.300Z,0.88
2022-08-22T17:26:19.224Z,0.93
2022-08-22T17:28:56.550Z,0.87
2022-08-22T17:31:55.713Z,0.70
2022-08-22T17:34:41.407Z,1.02
2022-08-22T17:37:36.418Z,0.90
2022-08-22T17:40:17.085Z,0.77
2022-08-22T17:42:59.680Z,1.20
2022-08-22T17:45:38.221Z,0.80
2022-08-22T17:48:26.588Z,1.10
2022-08-22T17:51:28.599Z,0.80
2022-08-22T17:54:17.373Z,1.10
2022-08-22T17:57:05.124Z,1.03
2022-08-22T17:59:47.554Z,1.05
2022-08-22T18:02:27.414Z,0.80
2022-08-22T18:05:35.242Z,0.90
2022-08-22T18:08:38.698Z,1.17
2022-08-22T18:11:40.767Z,1.00
2022-08-22T18:14:30.463Z,1.10
2022-08-22T18:17:00.747Z,0.93
2022-08-22T18:19:36.593Z,0.90
2022-08-22T18:22:09.560Z,0.80
2022-08-22T18:24:49.904Z,0.80
2022-08-22T18:27:34.045Z,0.82
2022-08-22T18:30:08.540Z,0.80
2022-08-22T18:32:54.114Z,0.80
2022-08-22T18:35:28.955Z,0.80
2022-08-22T18:38:19.538Z,0.60
2022-08-22T18:40:54.658Z,1.00
2022-08-22T18:43:36.865Z,0.98
2022-08-22T18:46:27.088Z,1.00
2022-08-22T18:49:14.485Z,0.90
2022-08-22T18:51:42.437Z,0.80
2022-08-22T18:54:11.184Z,0.63
2022-08-22T18:56:49.708Z,0.70
2022-08-22T18:59:29.001Z,0.70
2022-08-22T19:02:02.579Z,1.00
2022-08-22T19:05:12.035Z,0.73
2022-08-22T19:08:39.253Z,0.80
2022-08-22T19:11:35.104Z,0.82
2022-08-22T19:14:19.630Z,0.60
2022-08-22T19:17:15.049Z,0.70
2022-08-22T19:20:16.395Z,0.53
2022-08-22T19:22:44.084Z,0.70
2022-08-22T19:25:19.706Z,0.80
2022-08-22T19:28:07.750Z,0.80
2022-08-22T19:30:42.975Z,0.55
2022-08-22T19:33:19.956Z,0.67
2022-08-22T19:35:55.536Z,0.52
2022-08-22T19:38:53.716Z,0.82
2022-08-22T19:41:44.332Z,0.80
2022-08-22T19:44:17.791Z,0.73
2022-08-22T19:47:02.452Z,0.77
2022-08-22T19:49:35.150Z,0.70
2022-08-22T19:52:34.004Z,0.80
2022-08-22T19:58:32.006Z,0.80
2022-08-22T20:01:18.922Z,0.60
2022-08-22T20:03:53.238Z,0.70
2022-08-22T20:06:40.727Z,0.60
2022-08-22T20:09:29.110Z,0.68
2022-08-22T20:12:28.601Z,0.82
2022-08-22T20:14:56.280Z,0.63
2022-08-22T20:17:26.218Z,0.77
2022-08-22T20:20:17.570Z,1.00
2022-08-22T20:23:21.123Z,0.80
2022-08-22T20:25:52.885Z,0.90
2022-08-22T20:28:38.531Z,0.93
2022-08-22T20:31:27.093Z,1.15
2022-08-22T20:34:01.297Z,0.95
2022-08-22T20:37:15.786Z,1.80
2022-08-22T20:39:58.575Z,2.53
2022-08-22T20:42:28.271Z,2.90
2022-08-22T20:44:56.172Z,3.78
2022-08-22T20:47:26.069Z,3.67
2022-08-22T20:50:07.811Z,4.30
2022-08-22T20:52:38.303Z,4.00
2022-08-22T20:55:07.606Z,4.17
2022-08-22T20:57:43.821Z,4.38
2022-08-22T21:00:14.373Z,3.92
2022-08-22T21:02:48.091Z,4.80
2022-08-22T21:05:17.315Z,4.38
2022-08-22T21:07:47.086Z,5.13
2022-08-22T21:10:41.034Z,4.38
2022-08-22T21:13:29.900Z,3.40
2022-08-22T21:16:10.966Z,2.60
2022-08-22T21:18:45.867Z,2.33
2022-08-22T21:21:18.129Z,2.33
2022-08-22T21:23:48.951Z,2.78
2022-08-22T21:26:20.893Z,2.13
2022-08-22T21:28:56.042Z,2.17
2022-08-22T21:31:26.985Z,2.20
2022-08-22T21:33:55.808Z,1.83
2022-08-22T21:36:27.359Z,1.88
2022-08-22T21:39:03.580Z,2.05
2022-08-22T21:41:41.750Z,2.08
2022-08-22T21:44:27.284Z,1.90
2022-08-22T21:46:55.666Z,1.97
2022-08-22T21:49:26.669Z,1.80
2022-08-22T21:51:53.910Z,1.77
2022-08-22T21:54:35.653Z,2.00
2022-08-22T21:57:08.988Z,2.38
2022-08-22T21:59:59.800Z,2.20
2022-08-22T22:02:37.894Z,2.20
2022-08-22T22:05:11.504Z,2.13
2022-08-22T22:07:41.283Z,1.73
2022-08-22T22:10:10.985Z,1.80
2022-08-22T22:12:40.780Z,1.60
2022-08-22T22:15:13.812Z,1.85
2022-08-22T22:17:40.979Z,1.70
2022-08-22T22:20:08.987Z,1.70
2022-08-22T22:22:37.051Z,1.80
2022-08-22T22:25:39.597Z,1.73
2022-08-22T22:28:05.372Z,1.70
2022-08-22T22:30:32.674Z,2.03
2022-08-22T22:32:59.792Z,2.25
2022-08-22T22:35:27.094Z,1.50
2022-08-22T22:37:55.924Z,1.53
2022-08-22T22:40:24.176Z,1.60
2022-08-22T22:42:51.393Z,1.92
2022-08-22T22:45:18.765Z,1.60
2022-08-22T22:47:45.899Z,1.83
2022-08-22T22:50:13.088Z,1.50
2022-08-22T22:52:40.934Z,1.50
2022-08-22T22:55:09.443Z,1.33
2022-08-22T22:57:39.749Z,1.92
2022-08-22T23:00:12.499Z,1.58
2022-08-22T23:02:40.059Z,1.30
2022-08-22T23:05:08.737Z,1.33
2022-08-22T23:07:38.321Z,1.77
2022-08-22T23:10:07.349Z,1.42
2022-08-22T23:12:36.426Z,1.30
2022-08-22T23:15:06.345Z,1.30
2022-08-22T23:17:34.706Z,1.13
2022-08-22T23:20:02.292Z,1.25
2022-08-22T23:22:30.218Z,1.15
2022-08-22T23:24:57.350Z,1.20
2022-08-22T23:27:24.480Z,1.20
2022-08-22T23:29:52.887Z,1.00
2022-08-22T23:32:20.562Z,0.88
2022-08-22T23:34:48.809Z,1.25
2022-08-22T23:37:19.900Z,1.02
2022-08-22T23:39:48.150Z,1.00
2022-08-22T23:42:15.475Z,0.95
2022-08-22T23:44:45.222Z,1.13
2022-08-22T23:47:14.003Z,1.05
2022-08-22T23:49:42.965Z,1.30
2022-08-22T23:52:11.925Z,0.80
2022-08-22T23:54:39.198Z,1.00
2022-08-22T23:57:11.658Z,1.20
2022-08-22T23:59:46.336Z,1.20
